Time;durP1;ratioP1;P1;durP2;ratioP2;P2;SDS_P1;SDS_P2;PMS_P1;PMS_P2;Temp;Humidity;BMP_temperature;BMP_pressure;BME280_temperature;BME280_humidity;BME280_pressure;Samples;Min_cycle;Max_cycle;Signal;HPM_P1;HPM_P2
2024/01/26 00:01:22;;;;;;;18.88;12.77;;;;;;;;;;5056546;28;20063;-66
2024/01/26 00:03:47;;;;;;;22.10;13.27;;;;;;;;;;5067494;28;20121;-66
2024/01/26 00:06:12;;;;;;;20.70;13.53;;;;;;;;;;5058913;28;20834;-67
2024/01/26 00:08:37;;;;;;;19.73;12.52;;;;;;;;;;5064237;28;21084;-67
2024/01/26 00:11:02;;;;;;;19.20;12.43;;;;;;;;;;5066888;28;20032;-68
2024/01/26 00:13:28;;;;;;;17.45;11.82;;;;;;;;;;5063732;28;20281;-68
2024/01/26 00:15:53;;;;;;;20.05;11.48;;;;;;;;;;5050964;28;20345;-67
2024/01/26 00:18:18;;;;;;;17.88;13.50;;;;;;;;;;5031888;28;20142;-67
2024/01/26 00:20:44;;;;;;;15.13;10.40;;;;;;;;;;5047955;28;20814;-66
2024/01/26 00:23:09;;;;;;;17.90;12.07;;;;;;;;;;5050668;28;20032;-66
2024/01/26 00:25:35;;;;;;;19.70;12.40;;;;;;;;;;5051202;28;20065;-67
2024/01/26 00:28:00;;;;;;;15.80;11.52;;;;;;;;;;5056629;28;20862;-67
2024/01/26 00:30:26;;;;;;;16.70;11.32;;;;;;;;;;5058153;28;20130;-67
2024/01/26 00:32:51;;;;;;;17.30;10.93;;;;;;;;;;5052046;28;20891;-67
2024/01/26 00:35:16;;;;;;;16.25;10.50;;;;;;;;;;5055259;28;20997;-68
2024/01/26 00:37:42;;;;;;;16.77;10.50;;;;;;;;;;5058628;28;20063;-68
2024/01/26 00:40:07;;;;;;;16.30;9.70;;;;;;;;;;5039575;28;20027;-68
2024/01/26 00:42:33;;;;;;;15.25;9.52;;;;;;;;;;5050975;28;20036;-67
2024/01/26 00:44:58;;;;;;;14.05;9.10;;;;;;;;;;5062462;28;20892;-67
2024/01/26 00:47:23;;;;;;;15.80;9.48;;;;;;;;;;5045126;28;20059;-67
2024/01/26 00:49:48;;;;;;;13.53;9.37;;;;;;;;;;5058282;28;20031;-67
2024/01/26 00:52:14;;;;;;;12.27;8.43;;;;;;;;;;5058819;28;21325;-67
2024/01/26 00:54:39;;;;;;;13.35;8.85;;;;;;;;;;5049781;28;20027;-67
2024/01/26 00:57:04;;;;;;;12.95;8.25;;;;;;;;;;5061320;28;20090;-67
2024/01/26 00:59:30;;;;;;;11.45;7.70;;;;;;;;;;5050251;28;20971;-67
2024/01/26 01:01:56;;;;;;;12.52;7.82;;;;;;;;;;5048039;28;20038;-67
2024/01/26 01:04:22;;;;;;;13.07;7.85;;;;;;;;;;5048371;28;20841;-67
2024/01/26 01:06:47;;;;;;;11.70;7.55;;;;;;;;;;5060207;28;20041;-67
2024/01/26 01:09:12;;;;;;;12.20;8.37;;;;;;;;;;5050786;28;20891;-67
2024/01/26 01:11:37;;;;;;;11.55;7.43;;;;;;;;;;5058165;28;21755;-67
2024/01/26 01:14:04;;;;;;;11.80;8.40;;;;;;;;;;5059755;28;20023;-67
2024/01/26 01:16:29;;;;;;;12.40;9.13;;;;;;;;;;5065930;28;20055;-67
2024/01/26 01:18:54;;;;;;;13.85;8.85;;;;;;;;;;5056105;28;20031;-67
2024/01/26 01:21:20;;;;;;;11.40;8.50;;;;;;;;;;5062844;28;20028;-66
2024/01/26 01:23:45;;;;;;;17.88;10.40;;;;;;;;;;5050797;28;20460;-67
2024/01/26 01:26:11;;;;;;;10.77;7.93;;;;;;;;;;5053941;28;20159;-67
2024/01/26 01:28:36;;;;;;;16.27;9.38;;;;;;;;;;5057470;28;21309;-67
2024/01/26 01:31:01;;;;;;;12.00;8.32;;;;;;;;;;5052127;28;20052;-67
2024/01/26 01:33:26;;;;;;;12.47;7.93;;;;;;;;;;5050649;28;20031;-67
2024/01/26 01:35:52;;;;;;;11.97;7.70;;;;;;;;;;5053202;28;20281;-67
2024/01/26 01:38:18;;;;;;;10.90;7.32;;;;;;;;;;5063537;28;20338;-67
2024/01/26 01:40:43;;;;;;;10.38;7.35;;;;;;;;;;5062318;28;20032;-67
2024/01/26 01:43:14;;;;;;;10.35;6.60;;;;;;;;;;5050880;28;20890;-67
2024/01/26 01:45:40;;;;;;;8.20;6.38;;;;;;;;;;5060267;28;20024;-67
2024/01/26 01:48:05;;;;;;;9.80;6.85;;;;;;;;;;5053171;28;20883;-67
2024/01/26 01:50:31;;;;;;;10.45;7.15;;;;;;;;;;5056154;28;20028;-67
2024/01/26 01:52:56;;;;;;;10.05;7.15;;;;;;;;;;5055192;28;20024;-67
2024/01/26 01:55:22;;;;;;;11.52;8.25;;;;;;;;;;5050928;28;20881;-67
2024/01/26 01:57:48;;;;;;;12.15;8.73;;;;;;;;;;5063040;28;20301;-67
2024/01/26 02:00:16;;;;;;;12.32;8.65;;;;;;;;;;5061710;28;20068;-67
2024/01/26 02:02:45;;;;;;;10.65;8.10;;;;;;;;;;5060604;28;20020;-67
2024/01/26 02:05:11;;;;;;;12.07;8.98;;;;;;;;;;5048525;28;20028;-67
2024/01/26 02:07:36;;;;;;;13.63;8.20;;;;;;;;;;5053498;28;20943;-67
2024/01/26 02:10:02;;;;;;;13.18;9.65;;;;;;;;;;5057176;28;20027;-67
2024/01/26 02:12:27;;;;;;;13.98;8.45;;;;;;;;;;5052448;28;20028;-67
2024/01/26 02:14:52;;;;;;;12.45;8.13;;;;;;;;;;5057032;28;20885;-67
2024/01/26 02:17:17;;;;;;;14.77;7.83;;;;;;;;;;5061915;28;20026;-67
2024/01/26 02:19:43;;;;;;;12.27;8.05;;;;;;;;;;5059062;28;20270;-67
2024/01/26 02:22:08;;;;;;;9.48;7.38;;;;;;;;;;5057486;28;20024;-67
2024/01/26 02:24:33;;;;;;;10.90;7.03;;;;;;;;;;5059596;28;20038;-66
2024/01/26 02:26:58;;;;;;;11.63;6.95;;;;;;;;;;5059782;28;20424;-67
2024/01/26 02:29:24;;;;;;;8.88;6.43;;;;;;;;;;5062289;28;20893;-67
2024/01/26 02:31:49;;;;;;;10.47;7.10;;;;;;;;;;5051303;28;20980;-67
2024/01/26 02:34:14;;;;;;;9.47;6.63;;;;;;;;;;5058038;28;21328;-67
2024/01/26 02:36:39;;;;;;;9.80;7.07;;;;;;;;;;5049448;28;21259;-67
2024/01/26 02:39:05;;;;;;;9.27;6.25;;;;;;;;;;5055760;28;20073;-67
2024/01/26 02:41:31;;;;;;;8.48;6.28;;;;;;;;;;5050539;28;20089;-67
2024/01/26 02:43:56;;;;;;;9.57;6.47;;;;;;;;;;5052364;28;20032;-67
2024/01/26 02:46:21;;;;;;;9.20;6.25;;;;;;;;;;5065118;28;20032;-67
2024/01/26 02:48:46;;;;;;;8.27;6.03;;;;;;;;;;5067090;28;20894;-67
2024/01/26 02:51:12;;;;;;;8.27;6.28;;;;;;;;;;5065707;28;20411;-67
2024/01/26 02:53:39;;;;;;;9.15;6.07;;;;;;;;;;5060315;28;20034;-67
2024/01/26 02:56:04;;;;;;;7.90;5.50;;;;;;;;;;5067844;28;20033;-67
2024/01/26 02:58:29;;;;;;;9.77;6.65;;;;;;;;;;5066100;28;20036;-67
2024/01/26 03:00:55;;;;;;;10.13;6.03;;;;;;;;;;5065434;28;20887;-67
2024/01/26 03:03:20;;;;;;;9.48;5.78;;;;;;;;;;5060642;28;21195;-68
2024/01/26 03:05:45;;;;;;;8.95;5.70;;;;;;;;;;5060846;28;20081;-66
2024/01/26 03:08:11;;;;;;;10.80;5.93;;;;;;;;;;5065949;28;20077;-66
2024/01/26 03:10:36;;;;;;;8.77;5.63;;;;;;;;;;5065976;28;20281;-67
2024/01/26 03:13:01;;;;;;;8.70;5.78;;;;;;;;;;5065178;28;21051;-66
2024/01/26 03:15:26;;;;;;;9.40;6.22;;;;;;;;;;5065742;28;20035;-67
2024/01/26 03:17:52;;;;;;;9.00;5.30;;;;;;;;;;5059130;28;20876;-66
2024/01/26 03:20:17;;;;;;;8.37;5.30;;;;;;;;;;5055323;28;21275;-67
2024/01/26 03:22:46;;;;;;;6.80;5.25;;;;;;;;;;5062375;28;21154;-69
2024/01/26 03:25:11;;;;;;;7.68;5.20;;;;;;;;;;5054158;28;20024;-68
2024/01/26 03:27:36;;;;;;;7.05;4.60;;;;;;;;;;5060911;28;20869;-66
2024/01/26 03:30:02;;;;;;;11.68;5.75;;;;;;;;;;5050943;28;20148;-66
2024/01/26 03:32:27;;;;;;;6.80;5.03;;;;;;;;;;5054413;28;20016;-68
2024/01/26 03:34:52;;;;;;;7.20;4.72;;;;;;;;;;5064092;28;20904;-68
2024/01/26 03:37:18;;;;;;;7.72;5.20;;;;;;;;;;5063365;28;20097;-68
2024/01/26 03:39:43;;;;;;;8.35;4.13;;;;;;;;;;5053004;28;20028;-68
2024/01/26 03:42:11;;;;;;;7.13;4.10;;;;;;;;;;5062077;28;20864;-68
2024/01/26 03:44:36;;;;;;;6.13;3.92;;;;;;;;;;5059045;28;20030;-68
2024/01/26 03:47:02;;;;;;;7.18;3.80;;;;;;;;;;5058455;28;20020;-68
2024/01/26 03:49:27;;;;;;;8.38;4.72;;;;;;;;;;5061569;28;20848;-68
2024/01/26 03:51:52;;;;;;;5.53;3.53;;;;;;;;;;5052843;28;20046;-68
2024/01/26 03:54:18;;;;;;;5.77;3.80;;;;;;;;;;5061723;28;20292;-68
2024/01/26 03:56:43;;;;;;;6.07;4.10;;;;;;;;;;5061141;28;20266;-69
2024/01/26 03:59:08;;;;;;;6.65;3.55;;;;;;;;;;5060050;28;20343;-67
2024/01/26 04:01:33;;;;;;;6.90;3.67;;;;;;;;;;5052079;28;20020;-67
2024/01/26 04:04:00;;;;;;;5.68;3.58;;;;;;;;;;5062534;28;20032;-68
2024/01/26 04:06:25;;;;;;;5.85;3.38;;;;;;;;;;5054176;28;20936;-68
2024/01/26 04:08:51;;;;;;;9.40;3.40;;;;;;;;;;5052584;28;20067;-68
2024/01/26 04:11:16;;;;;;;5.40;3.35;;;;;;;;;;5060843;28;21279;-68
2024/01/26 04:13:41;;;;;;;6.30;3.60;;;;;;;;;;5062530;28;20055;-68
2024/01/26 04:16:07;;;;;;;6.20;3.45;;;;;;;;;;5054117;28;20080;-68
2024/01/26 04:18:33;;;;;;;6.80;4.05;;;;;;;;;;5057855;28;20038;-67
2024/01/26 04:20:58;;;;;;;5.75;3.63;;;;;;;;;;5059136;28;20790;-68
2024/01/26 04:23:23;;;;;;;5.88;4.00;;;;;;;;;;5061207;28;20024;-68
2024/01/26 04:25:48;;;;;;;5.03;3.47;;;;;;;;;;5059653;28;20887;-68
2024/01/26 04:28:14;;;;;;;6.80;4.32;;;;;;;;;;5054633;28;20063;-67
2024/01/26 04:30:41;;;;;;;8.65;3.72;;;;;;;;;;5057090;28;20909;-68
2024/01/26 04:33:07;;;;;;;6.43;4.13;;;;;;;;;;5056157;28;20024;-68
2024/01/26 04:35:32;;;;;;;7.50;4.90;;;;;;;;;;5060210;28;20845;-68
2024/01/26 04:37:57;;;;;;;6.30;4.38;;;;;;;;;;5055154;28;20016;-68
2024/01/26 04:40:22;;;;;;;7.17;4.87;;;;;;;;;;5061982;28;20758;-68
2024/01/26 04:42:48;;;;;;;6.05;4.72;;;;;;;;;;5055033;28;21250;-68
2024/01/26 04:45:13;;;;;;;6.27;3.60;;;;;;;;;;5058094;28;20093;-67
2024/01/26 04:47:38;;;;;;;5.55;3.65;;;;;;;;;;5055269;28;20281;-68
2024/01/26 04:50:04;;;;;;;7.20;4.43;;;;;;;;;;5064654;28;20418;-68
2024/01/26 04:52:29;;;;;;;6.43;4.43;;;;;;;;;;5055991;28;20028;-68
2024/01/26 04:54:54;;;;;;;7.20;3.85;;;;;;;;;;5053652;28;20097;-68
2024/01/26 04:57:19;;;;;;;6.45;4.40;;;;;;;;;;5061126;28;20024;-66
2024/01/26 04:59:45;;;;;;;8.23;4.90;;;;;;;;;;5061281;28;20883;-67
2024/01/26 05:02:10;;;;;;;10.13;4.47;;;;;;;;;;5055803;28;20066;-68
2024/01/26 05:04:35;;;;;;;6.80;4.55;;;;;;;;;;5058987;28;20269;-68
2024/01/26 05:07:01;;;;;;;8.68;4.63;;;;;;;;;;5061669;28;20043;-67
2024/01/26 05:09:26;;;;;;;6.67;4.40;;;;;;;;;;5056777;28;20016;-68
2024/01/26 05:11:52;;;;;;;6.65;4.75;;;;;;;;;;5049882;28;21231;-68
2024/01/26 05:14:17;;;;;;;8.05;4.00;;;;;;;;;;5053453;28;20142;-66
2024/01/26 05:16:42;;;;;;;8.35;4.45;;;;;;;;;;5064120;28;20057;-66
2024/01/26 05:19:07;;;;;;;7.20;4.67;;;;;;;;;;5063910;28;20765;-67
2024/01/26 05:21:32;;;;;;;6.97;4.20;;;;;;;;;;5061560;28;20258;-67
2024/01/26 05:23:58;;;;;;;7.60;4.25;;;;;;;;;;5058840;28;20342;-68
2024/01/26 05:26:23;;;;;;;7.22;4.72;;;;;;;;;;5049675;28;20105;-66
2024/01/26 05:28:48;;;;;;;7.83;4.93;;;;;;;;;;5052500;28;20051;-67
2024/01/26 05:31:13;;;;;;;8.05;4.85;;;;;;;;;;5061418;28;20347;-66
2024/01/26 05:33:39;;;;;;;9.45;4.85;;;;;;;;;;5049642;28;20896;-66
2024/01/26 05:36:04;;;;;;;9.37;4.37;;;;;;;;;;5050990;28;20205;-66
2024/01/26 05:38:29;;;;;;;7.88;4.75;;;;;;;;;;5056022;28;20273;-66
2024/01/26 05:40:55;;;;;;;8.10;4.33;;;;;;;;;;5060604;28;20869;-66
2024/01/26 05:43:21;;;;;;;7.20;4.68;;;;;;;;;;5042852;28;20266;-66
2024/01/26 05:45:46;;;;;;;8.90;4.93;;;;;;;;;;5060081;28;20870;-66
2024/01/26 05:48:11;;;;;;;6.13;4.57;;;;;;;;;;5057266;28;20028;-66
2024/01/26 05:50:38;;;;;;;8.45;4.97;;;;;;;;;;5055993;28;20906;-66
2024/01/26 05:53:03;;;;;;;7.15;4.63;;;;;;;;;;5054574;28;20128;-66
2024/01/26 05:55:29;;;;;;;7.95;5.35;;;;;;;;;;5054683;28;20833;-66
2024/01/26 05:57:54;;;;;;;10.90;5.73;;;;;;;;;;5056493;28;20893;-66
2024/01/26 06:00:19;;;;;;;7.20;5.32;;;;;;;;;;5055578;28;21174;-66
2024/01/26 06:02:45;;;;;;;7.93;4.90;;;;;;;;;;5052793;28;20137;-66
2024/01/26 06:05:10;;;;;;;11.40;5.82;;;;;;;;;;5061662;28;20067;-67
2024/01/26 06:07:35;;;;;;;8.93;5.37;;;;;;;;;;5048797;28;20035;-66
2024/01/26 06:10:00;;;;;;;8.65;5.68;;;;;;;;;;5048560;28;20339;-66
2024/01/26 06:12:26;;;;;;;8.30;5.47;;;;;;;;;;5058491;28;20521;-66
2024/01/26 06:14:51;;;;;;;12.82;6.38;;;;;;;;;;5059921;28;21324;-68
2024/01/26 06:17:16;;;;;;;9.23;5.70;;;;;;;;;;5037545;28;20028;-68
2024/01/26 06:19:41;;;;;;;12.57;6.47;;;;;;;;;;5060809;28;20269;-67
2024/01/26 06:22:07;;;;;;;10.10;6.90;;;;;;;;;;5060042;28;20059;-68
2024/01/26 06:24:32;;;;;;;10.27;6.90;;;;;;;;;;5059565;28;21265;-67
2024/01/26 06:26:57;;;;;;;9.23;5.95;;;;;;;;;;5056194;28;21215;-68
2024/01/26 06:29:22;;;;;;;8.50;6.32;;;;;;;;;;5064509;28;20027;-66
2024/01/26 06:31:48;;;;;;;10.73;7.00;;;;;;;;;;5060770;28;20399;-68
2024/01/26 06:34:13;;;;;;;10.88;6.40;;;;;;;;;;5061344;28;20028;-68
2024/01/26 06:36:38;;;;;;;9.93;7.30;;;;;;;;;;5051634;28;20091;-68
2024/01/26 06:39:03;;;;;;;9.07;6.70;;;;;;;;;;5053950;28;20393;-69
2024/01/26 06:41:29;;;;;;;12.00;7.43;;;;;;;;;;5060686;28;20051;-69
2024/01/26 06:43:54;;;;;;;9.90;7.05;;;;;;;;;;5056697;28;20031;-69
2024/01/26 06:46:22;;;;;;;10.98;7.20;;;;;;;;;;5051285;28;21332;-67
2024/01/26 06:48:48;;;;;;;11.88;8.05;;;;;;;;;;5058954;28;20126;-69
2024/01/26 06:51:14;;;;;;;10.95;7.28;;;;;;;;;;5062071;28;20027;-69
2024/01/26 06:53:39;;;;;;;10.02;7.20;;;;;;;;;;5057673;28;20028;-69
2024/01/26 06:56:04;;;;;;;13.48;7.50;;;;;;;;;;5059370;28;20942;-68
2024/01/26 06:58:30;;;;;;;13.85;7.90;;;;;;;;;;5059728;28;20024;-68
2024/01/26 07:00:55;;;;;;;11.50;7.50;;;;;;;;;;5059764;28;20937;-68
2024/01/26 07:03:20;;;;;;;13.15;8.23;;;;;;;;;;5055094;28;21187;-68
2024/01/26 07:05:45;;;;;;;12.02;7.78;;;;;;;;;;5058316;28;20038;-69
2024/01/26 07:08:10;;;;;;;12.57;7.97;;;;;;;;;;5056376;28;20028;-68
2024/01/26 07:10:36;;;;;;;12.60;7.53;;;;;;;;;;5054717;28;20031;-68
2024/01/26 07:13:01;;;;;;;12.80;8.25;;;;;;;;;;5055313;28;20281;-68
2024/01/26 07:15:26;;;;;;;13.63;8.20;;;;;;;;;;5057512;28;20118;-68
2024/01/26 07:17:51;;;;;;;10.97;6.50;;;;;;;;;;5057642;28;20942;-68
2024/01/26 07:20:17;;;;;;;14.18;8.63;;;;;;;;;;5058338;28;21131;-68
2024/01/26 07:22:42;;;;;;;11.18;7.18;;;;;;;;;;5061815;28;20073;-70
2024/01/26 07:25:11;;;;;;;12.85;7.05;;;;;;;;;;5065469;28;20554;-69
2024/01/26 07:27:37;;;;;;;12.23;7.28;;;;;;;;;;5064518;28;20088;-69
2024/01/26 07:30:05;;;;;;;12.18;6.75;;;;;;;;;;5063996;28;20028;-68
2024/01/26 07:32:30;;;;;;;10.27;6.82;;;;;;;;;;5048372;28;20020;-68
2024/01/26 07:34:55;;;;;;;12.40;7.20;;;;;;;;;;5061186;28;20850;-65
2024/01/26 07:37:21;;;;;;;9.77;6.50;;;;;;;;;;5057083;28;21303;-68
2024/01/26 07:39:46;;;;;;;12.20;8.25;;;;;;;;;;5058644;28;21086;-68
2024/01/26 07:42:11;;;;;;;13.48;7.88;;;;;;;;;;5059738;28;20012;-67
2024/01/26 07:44:37;;;;;;;11.68;7.32;;;;;;;;;;5059229;28;20129;-67
2024/01/26 07:47:02;;;;;;;11.38;7.25;;;;;;;;;;5055158;28;20036;-67
2024/01/26 07:49:28;;;;;;;11.90;7.75;;;;;;;;;;5058544;28;20904;-67
2024/01/26 07:51:53;;;;;;;11.23;7.80;;;;;;;;;;5063016;28;20023;-68
2024/01/26 07:54:18;;;;;;;11.35;6.75;;;;;;;;;;5061007;28;20049;-67
2024/01/26 07:56:43;;;;;;;10.02;6.43;;;;;;;;;;5058096;28;20028;-67
2024/01/26 07:59:09;;;;;;;9.38;6.43;;;;;;;;;;5062424;28;20108;-67
2024/01/26 08:01:34;;;;;;;9.85;6.93;;;;;;;;;;5062012;28;20907;-66
2024/01/26 08:03:59;;;;;;;13.52;7.20;;;;;;;;;;5063615;28;20098;-66
2024/01/26 08:06:24;;;;;;;11.77;7.25;;;;;;;;;;5054261;28;20952;-66
2024/01/26 08:08:50;;;;;;;13.00;7.07;;;;;;;;;;5060694;28;20030;-66
2024/01/26 08:11:17;;;;;;;8.43;6.77;;;;;;;;;;5061000;28;20031;-66
2024/01/26 08:13:43;;;;;;;9.73;6.07;;;;;;;;;;5065140;28;20299;-66
2024/01/26 08:16:13;;;;;;;9.30;6.10;;;;;;;;;;5065199;28;20020;-66
2024/01/26 08:18:38;;;;;;;11.38;6.57;;;;;;;;;;5062782;28;20119;-66
2024/01/26 08:21:03;;;;;;;7.77;6.10;;;;;;;;;;5047807;28;20065;-66
2024/01/26 08:23:29;;;;;;;9.25;6.55;;;;;;;;;;5052969;28;20286;-66
2024/01/26 08:25:54;;;;;;;8.23;5.53;;;;;;;;;;5063510;28;20026;-66
2024/01/26 08:28:19;;;;;;;8.83;5.47;;;;;;;;;;5064010;28;21217;-66
2024/01/26 08:30:44;;;;;;;11.57;6.22;;;;;;;;;;5061255;28;20266;-67
2024/01/26 08:33:10;;;;;;;7.97;5.22;;;;;;;;;;5061159;28;20842;-66
2024/01/26 08:35:35;;;;;;;7.82;5.68;;;;;;;;;;5060486;28;20035;-66
2024/01/26 08:38:00;;;;;;;7.60;5.68;;;;;;;;;;5062891;28;21090;-66
2024/01/26 08:40:26;;;;;;;8.87;5.50;;;;;;;;;;5063200;28;20055;-66
2024/01/26 08:42:51;;;;;;;9.50;6.13;;;;;;;;;;5058110;28;20286;-66
2024/01/26 08:45:16;;;;;;;12.17;6.77;;;;;;;;;;5052409;28;20023;-69
2024/01/26 08:47:41;;;;;;;8.48;6.30;;;;;;;;;;5057634;28;20273;-68
2024/01/26 08:50:07;;;;;;;9.32;6.60;;;;;;;;;;5062038;28;20080;-66
2024/01/26 08:52:32;;;;;;;8.55;6.47;;;;;;;;;;5061310;28;20047;-66
2024/01/26 08:54:58;;;;;;;10.07;6.28;;;;;;;;;;5048446;28;20889;-66
2024/01/26 08:57:23;;;;;;;10.55;6.75;;;;;;;;;;5050019;28;20020;-66
2024/01/26 08:59:48;;;;;;;11.93;7.00;;;;;;;;;;5053193;28;20587;-68
2024/01/26 09:02:13;;;;;;;14.67;8.77;;;;;;;;;;5050597;28;20021;-66
2024/01/26 09:04:39;;;;;;;11.45;8.45;;;;;;;;;;5053508;28;20270;-67
2024/01/26 09:07:04;;;;;;;9.73;6.35;;;;;;;;;;5054823;28;20043;-66
2024/01/26 09:09:30;;;;;;;8.10;5.90;;;;;;;;;;5062018;28;20024;-66
2024/01/26 09:11:56;;;;;;;7.85;5.20;;;;;;;;;;5054574;28;20270;-67
2024/01/26 09:14:21;;;;;;;7.95;5.97;;;;;;;;;;5053444;28;20035;-67
2024/01/26 09:16:50;;;;;;;9.13;5.45;;;;;;;;;;5057481;28;20086;-67
2024/01/26 09:19:16;;;;;;;8.77;6.22;;;;;;;;;;5060534;28;20964;-67
2024/01/26 09:21:41;;;;;;;7.93;5.47;;;;;;;;;;5059795;28;20055;-67
2024/01/26 09:24:06;;;;;;;12.80;6.18;;;;;;;;;;5057245;28;20334;-67
2024/01/26 09:26:31;;;;;;;12.73;6.13;;;;;;;;;;5061881;28;20948;-67
2024/01/26 09:28:57;;;;;;;10.98;5.95;;;;;;;;;;5059638;28;20072;-68
2024/01/26 09:31:22;;;;;;;8.35;5.75;;;;;;;;;;5054097;28;20019;-67
2024/01/26 09:33:47;;;;;;;8.65;5.78;;;;;;;;;;5064743;28;20180;-67
2024/01/26 09:36:12;;;;;;;9.13;5.67;;;;;;;;;;5061718;28;20132;-68
2024/01/26 09:38:38;;;;;;;7.10;4.82;;;;;;;;;;5060294;28;21303;-66
2024/01/26 09:41:03;;;;;;;11.05;5.40;;;;;;;;;;5063557;28;20024;-67
2024/01/26 09:43:29;;;;;;;8.18;5.32;;;;;;;;;;5057398;28;20801;-66
2024/01/26 09:45:54;;;;;;;9.50;5.75;;;;;;;;;;5055433;28;20072;-66
2024/01/26 09:48:20;;;;;;;9.52;5.68;;;;;;;;;;5057691;28;20035;-66
2024/01/26 09:50:50;;;;;;;8.27;5.32;;;;;;;;;;5038838;28;20023;-66
2024/01/26 09:53:17;;;;;;;8.77;5.15;;;;;;;;;;5059271;28;20992;-66
2024/01/26 09:55:43;;;;;;;11.05;6.25;;;;;;;;;;5063183;28;20027;-66
2024/01/26 09:58:08;;;;;;;7.57;4.90;;;;;;;;;;5061017;28;20020;-66
2024/01/26 10:00:34;;;;;;;8.65;5.00;;;;;;;;;;5057963;28;20023;-66
2024/01/26 10:02:59;;;;;;;6.72;3.95;;;;;;;;;;5055746;28;20139;-67
2024/01/26 10:05:24;;;;;;;9.60;5.20;;;;;;;;;;5050785;28;20833;-66
2024/01/26 10:07:50;;;;;;;7.80;4.82;;;;;;;;;;5058632;28;20365;-66
2024/01/26 10:10:16;;;;;;;6.95;4.07;;;;;;;;;;5058089;28;20028;-66
2024/01/26 10:12:41;;;;;;;6.18;3.65;;;;;;;;;;5053835;28;20872;-67
2024/01/26 10:15:08;;;;;;;5.28;2.95;;;;;;;;;;5061378;28;20027;-66
2024/01/26 10:17:34;;;;;;;9.70;2.55;;;;;;;;;;5060873;28;20030;-67
2024/01/26 10:20:09;;;;;;;5.15;1.65;;;;;;;;;;5058162;28;20019;-67
2024/01/26 10:22:37;;;;;;;5.10;1.48;;;;;;;;;;5055581;28;20020;-66
2024/01/26 10:25:03;;;;;;;6.93;1.40;;;;;;;;;;5057100;28;20983;-66
2024/01/26 10:27:29;;;;;;;5.65;1.52;;;;;;;;;;5053993;28;20119;-67
2024/01/26 10:29:54;;;;;;;9.02;2.10;;;;;;;;;;5049276;28;20024;-66
2024/01/26 10:32:20;;;;;;;8.25;1.48;;;;;;;;;;5057747;28;20031;-67
2024/01/26 10:34:46;;;;;;;3.63;1.45;;;;;;;;;;5051253;28;20028;-65
2024/01/26 10:37:12;;;;;;;4.57;1.23;;;;;;;;;;5057616;28;20028;-65
2024/01/26 10:39:37;;;;;;;8.18;1.75;;;;;;;;;;5061468;28;20809;-65
2024/01/26 10:42:04;;;;;;;3.72;1.05;;;;;;;;;;5052357;28;20028;-66
2024/01/26 10:44:37;;;;;;;4.97;1.42;;;;;;;;;;5060030;28;20112;-66
2024/01/26 10:47:04;;;;;;;6.45;1.55;;;;;;;;;;5057707;28;20872;-66
2024/01/26 10:49:30;;;;;;;5.80;1.23;;;;;;;;;;5061774;28;20015;-65
2024/01/26 10:51:56;;;;;;;4.20;1.40;;;;;;;;;;5050888;28;20269;-66
2024/01/26 10:54:23;;;;;;;4.05;1.30;;;;;;;;;;5052080;28;20012;-66
2024/01/26 10:56:49;;;;;;;2.30;0.77;;;;;;;;;;5057474;28;20027;-66
2024/01/26 10:59:16;;;;;;;3.67;1.05;;;;;;;;;;5064211;28;20020;-65
2024/01/26 11:01:41;;;;;;;8.30;1.15;;;;;;;;;;5055882;28;20024;-65
2024/01/26 11:04:07;;;;;;;5.68;1.30;;;;;;;;;;5064765;28;20846;-65
2024/01/26 11:06:34;;;;;;;3.92;0.80;;;;;;;;;;5051931;28;20032;-65
2024/01/26 11:09:00;;;;;;;5.97;1.10;;;;;;;;;;5058504;28;20876;-65
2024/01/26 11:11:30;;;;;;;9.07;1.55;;;;;;;;;;5056326;28;20039;-64
2024/01/26 11:13:58;;;;;;;5.30;1.20;;;;;;;;;;5057727;28;20114;-65
2024/01/26 11:16:26;;;;;;;3.53;0.88;;;;;;;;;;5058093;28;20011;-67
2024/01/26 11:19:01;;;;;;;3.88;0.70;;;;;;;;;;5064157;28;20016;-65
2024/01/26 11:21:37;;;;;;;4.25;1.05;;;;;;;;;;5066216;28;20028;-65
2024/01/26 11:24:11;;;;;;;3.90;1.00;;;;;;;;;;5038737;28;20015;-66
2024/01/26 11:26:36;;;;;;;3.83;0.85;;;;;;;;;;5064979;28;20050;-66
2024/01/26 11:29:09;;;;;;;2.97;1.13;;;;;;;;;;5055209;28;20028;-65
2024/01/26 11:31:35;;;;;;;5.55;0.80;;;;;;;;;;5063920;28;20276;-66
2024/01/26 11:34:01;;;;;;;2.58;0.73;;;;;;;;;;5066039;28;20892;-65
2024/01/26 11:36:31;;;;;;;4.20;0.80;;;;;;;;;;5058558;28;20123;-66
2024/01/26 11:38:56;;;;;;;2.53;0.77;;;;;;;;;;5062747;28;20035;-65
2024/01/26 11:41:21;;;;;;;2.80;0.80;;;;;;;;;;5064841;28;20039;-65
2024/01/26 11:43:47;;;;;;;3.53;0.75;;;;;;;;;;5059374;28;20028;-67
2024/01/26 11:46:13;;;;;;;4.75;0.80;;;;;;;;;;5066073;28;20126;-65
2024/01/26 11:48:39;;;;;;;4.32;0.80;;;;;;;;;;5050091;28;20024;-65
2024/01/26 11:51:04;;;;;;;3.08;0.98;;;;;;;;;;5059525;28;20027;-65
2024/01/26 11:53:30;;;;;;;2.08;0.68;;;;;;;;;;5063269;28;20100;-66
2024/01/26 11:55:57;;;;;;;3.30;0.68;;;;;;;;;;5051510;28;20890;-65
2024/01/26 11:58:22;;;;;;;2.08;0.60;;;;;;;;;;5053760;28;20711;-65
2024/01/26 12:00:48;;;;;;;3.78;0.70;;;;;;;;;;5054640;28;20061;-66
2024/01/26 12:03:14;;;;;;;2.08;0.45;;;;;;;;;;5064019;28;20229;-66
2024/01/26 12:05:39;;;;;;;4.53;0.65;;;;;;;;;;5063367;28;20035;-65
2024/01/26 12:08:05;;;;;;;2.30;0.40;;;;;;;;;;5064180;28;20019;-65
2024/01/26 12:10:31;;;;;;;2.22;0.40;;;;;;;;;;5060908;28;20305;-66
2024/01/26 12:12:56;;;;;;;3.88;0.60;;;;;;;;;;5057369;28;20015;-66
2024/01/26 12:15:27;;;;;;;4.15;0.60;;;;;;;;;;5064836;28;20047;-66
2024/01/26 12:17:52;;;;;;;4.47;0.52;;;;;;;;;;5065488;28;20131;-66
2024/01/26 12:20:18;;;;;;;3.78;1.08;;;;;;;;;;5053876;28;20028;-66
2024/01/26 12:22:44;;;;;;;3.60;0.60;;;;;;;;;;5052227;28;20859;-66
2024/01/26 12:25:12;;;;;;;3.60;1.08;;;;;;;;;;5062401;28;20300;-66
2024/01/26 12:27:37;;;;;;;2.63;0.45;;;;;;;;;;5062895;28;20047;-65
2024/01/26 12:30:03;;;;;;;4.15;1.20;;;;;;;;;;5064000;28;20027;-65
2024/01/26 12:32:28;;;;;;;2.72;0.88;;;;;;;;;;5054068;28;20030;-66
2024/01/26 12:34:54;;;;;;;4.32;0.75;;;;;;;;;;5063987;28;20789;-65
2024/01/26 12:37:19;;;;;;;4.20;1.42;;;;;;;;;;5061971;28;20019;-65
2024/01/26 12:39:44;;;;;;;2.78;0.63;;;;;;;;;;5056850;28;20811;-66
2024/01/26 12:42:10;;;;;;;1.70;0.60;;;;;;;;;;5056801;28;20020;-65
2024/01/26 12:44:38;;;;;;;4.95;0.82;;;;;;;;;;5062650;28;20266;-65
2024/01/26 12:47:03;;;;;;;9.15;1.00;;;;;;;;;;5060834;28;20217;-65
2024/01/26 12:49:31;;;;;;;4.97;1.15;;;;;;;;;;5059177;28;20988;-64
2024/01/26 12:51:58;;;;;;;4.40;1.00;;;;;;;;;;5062555;28;20084;-65
2024/01/26 12:54:23;;;;;;;2.67;0.70;;;;;;;;;;5060095;28;20046;-65
2024/01/26 12:56:49;;;;;;;2.47;0.98;;;;;;;;;;5051119;28;20020;-65
2024/01/26 12:59:14;;;;;;;7.10;1.15;;;;;;;;;;5035413;28;20028;-65
2024/01/26 13:01:40;;;;;;;4.50;0.98;;;;;;;;;;5051680;28;20024;-65
2024/01/26 13:04:07;;;;;;;4.70;0.68;;;;;;;;;;5061409;28;20039;-65
2024/01/26 13:06:33;;;;;;;4.05;0.90;;;;;;;;;;5060263;28;20107;-65
2024/01/26 13:08:59;;;;;;;4.22;0.88;;;;;;;;;;5058822;28;20027;-66
2024/01/26 13:11:24;;;;;;;4.35;0.80;;;;;;;;;;5040035;28;20059;-66
2024/01/26 13:13:49;;;;;;;5.38;0.98;;;;;;;;;;5062476;28;20126;-67
2024/01/26 13:16:18;;;;;;;3.83;1.13;;;;;;;;;;5064424;28;20873;-66
2024/01/26 13:18:45;;;;;;;5.00;0.85;;;;;;;;;;5052549;28;20274;-65
2024/01/26 13:21:13;;;;;;;2.47;0.88;;;;;;;;;;5059691;28;20962;-65
2024/01/26 13:23:39;;;;;;;5.50;0.85;;;;;;;;;;5063360;28;20019;-66
2024/01/26 13:26:05;;;;;;;4.95;1.02;;;;;;;;;;5054844;28;20028;-65
2024/01/26 13:28:30;;;;;;;4.95;1.35;;;;;;;;;;5050795;28;20016;-65
2024/01/26 13:30:56;;;;;;;5.32;1.10;;;;;;;;;;5061092;28;21031;-65
2024/01/26 13:33:21;;;;;;;5.28;1.25;;;;;;;;;;5055302;28;20058;-66
2024/01/26 13:35:47;;;;;;;5.63;1.02;;;;;;;;;;5063603;28;21058;-65
2024/01/26 13:38:12;;;;;;;6.57;1.23;;;;;;;;;;5056513;28;20016;-65
2024/01/26 13:40:37;;;;;;;5.37;1.43;;;;;;;;;;5058640;28;20023;-65
2024/01/26 13:43:03;;;;;;;2.58;0.70;;;;;;;;;;5057131;28;20372;-66
2024/01/26 13:45:28;;;;;;;3.97;0.90;;;;;;;;;;5054262;28;20084;-67
2024/01/26 13:47:54;;;;;;;4.43;0.95;;;;;;;;;;5053989;28;21027;-65
2024/01/26 13:50:19;;;;;;;4.50;1.23;;;;;;;;;;5053482;28;20866;-65
2024/01/26 13:52:44;;;;;;;4.75;1.20;;;;;;;;;;5061100;28;21239;-65
2024/01/26 13:55:09;;;;;;;4.60;1.00;;;;;;;;;;5057079;28;20131;-65
2024/01/26 13:57:35;;;;;;;3.63;1.13;;;;;;;;;;5057269;28;20021;-65
2024/01/26 14:00:00;;;;;;;5.35;1.17;;;;;;;;;;5052414;28;20112;-65
2024/01/26 14:02:25;;;;;;;6.93;1.02;;;;;;;;;;5059228;28;20044;-65
2024/01/26 14:04:51;;;;;;;6.30;1.10;;;;;;;;;;5055433;28;20027;-65
2024/01/26 14:07:16;;;;;;;3.77;1.00;;;;;;;;;;5053420;28;20039;-65
2024/01/26 14:09:41;;;;;;;5.57;0.90;;;;;;;;;;5062341;28;20281;-66
2024/01/26 14:12:07;;;;;;;5.67;1.23;;;;;;;;;;5062118;28;20874;-66
2024/01/26 14:14:33;;;;;;;6.85;1.00;;;;;;;;;;5057114;28;20385;-62
2024/01/26 14:16:59;;;;;;;3.25;0.55;;;;;;;;;;5050130;28;20016;-67
2024/01/26 14:19:24;;;;;;;4.90;1.25;;;;;;;;;;5052633;28;20084;-64
2024/01/26 14:21:49;;;;;;;5.13;1.33;;;;;;;;;;5052975;28;20140;-65
2024/01/26 14:24:15;;;;;;;4.57;1.00;;;;;;;;;;5061922;28;20034;-65
2024/01/26 14:26:40;;;;;;;4.43;0.98;;;;;;;;;;5056139;28;20038;-65
2024/01/26 14:29:10;;;;;;;7.38;1.20;;;;;;;;;;5061064;28;20023;-64